Wetterdaten: Woche 25.07.16 - 31.07.16 (KW30)
Datum Zeit Temp. A. Feuchte A. Luftdruck Regen Wind Richtung Sonnenschein ET UV Solar Taupunkt Windchill Windben Empfang
25.07.2016 00:00 19,2 C 91 % 1015,8 hPa 0,0 l/m 1,3 km/h (1 Bft) O-NO 0,00 h 0,000 mm 0,0 UV-I 0 W/m 17,7 C 19,2 C 2,3 km/h (1 Bft) 98,35 %
25.07.2016 01:00 18,5 C 93 % 1015,8 hPa 0,0 l/m 1,0 km/h (0 Bft) O-SO 0,00 h 0,000 mm 0,0 UV-I 0 W/m 17,4 C 18,5 C 2,0 km/h (1 Bft) 99,15 %
25.07.2016 02:00 18,1 C 94 % 1015,7 hPa 0,0 l/m 1,3 km/h (1 Bft) O-SO 0,00 h 0,000 mm 0,0 UV-I 0 W/m 17,2 C 18,1 C 2,3 km/h (1 Bft) 98,30 %
25.07.2016 03:00 18,0 C 95 % 1015,7 hPa 0,0 l/m 2,9 km/h (1 Bft) SO 0,00 h 0,000 mm 0,0 UV-I 0 W/m 17,1 C 18,0 C 4,4 km/h (1 Bft) 99,38 %
25.07.2016 04:00 17,8 C 95 % 1015,7 hPa 0,0 l/m 2,1 km/h (1 Bft) S-SW 0,00 h 0,000 mm 0,0 UV-I 0 W/m 17,0 C 17,8 C 4,0 km/h (1 Bft) 97,91 %
25.07.2016 05:00 17,5 C 95 % 1015,8 hPa 0,0 l/m 0,3 km/h (0 Bft) S-SW 0,13 h 0,000 mm 0,0 UV-I 12 W/m 16,7 C 17,5 C 1,0 km/h (0 Bft) 99,07 %
25.07.2016 06:00 17,8 C 96 % 1016,0 hPa 0,0 l/m 0,4 km/h (0 Bft) S-SW 0,00 h 0,000 mm 0,0 UV-I 62 W/m 17,1 C 17,8 C 1,3 km/h (1 Bft) 98,06 %
25.07.2016 07:00 19,5 C 91 % 1016,2 hPa 0,0 l/m 5,1 km/h (1 Bft) S-SW 1,00 h 0,025 mm 0,6 UV-I 252 W/m 18,1 C 19,4 C 8,2 km/h (2 Bft) 99,68 %
25.07.2016 08:00 21,0 C 87 % 1016,1 hPa 0,0 l/m 6,3 km/h (2 Bft) W-SW 1,00 h 0,153 mm 1,3 UV-I 389 W/m 18,6 C 20,7 C 10,4 km/h (2 Bft) 97,92 %
25.07.2016 09:00 22,6 C 80 % 1015,8 hPa 0,0 l/m 7,2 km/h (2 Bft) W-SW 0,87 h 0,228 mm 2,6 UV-I 472 W/m 19,0 C 22,1 C 12,5 km/h (3 Bft) 99,42 %
25.07.2016 10:00 23,9 C 72 % 1015,9 hPa 0,0 l/m 6,3 km/h (2 Bft) W-SW 1,00 h 0,305 mm 4,3 UV-I 707 W/m 18,6 C 23,7 C 12,0 km/h (2 Bft) 98,35 %
25.07.2016 11:00 24,0 C 74 % 1015,8 hPa 0,0 l/m 5,7 km/h (1 Bft) SW 0,77 h 0,457 mm 4,9 UV-I 597 W/m 19,1 C 23,9 C 10,0 km/h (2 Bft) 99,09 %
25.07.2016 12:00 26,0 C 66 % 1015,2 hPa 0,0 l/m 6,1 km/h (2 Bft) W-SW 0,90 h 0,407 mm 6,3 UV-I 795 W/m 19,1 C 25,9 C 11,6 km/h (2 Bft) 97,84 %
25.07.2016 13:00 26,9 C 60 % 1014,8 hPa 0,0 l/m 8,2 km/h (2 Bft) W-SW 0,97 h 0,533 mm 6,7 UV-I 843 W/m 18,3 C 26,5 C 13,7 km/h (3 Bft) 99,41 %
25.07.2016 14:00 27,0 C 59 % 1014,5 hPa 0,0 l/m 6,0 km/h (2 Bft) W-SW 0,33 h 0,610 mm 4,3 UV-I 516 W/m 18,2 C 26,9 C 10,8 km/h (2 Bft) 98,22 %
25.07.2016 15:00 23,4 C 76 % 1014,9 hPa 0,4 l/m 9,0 km/h (2 Bft) S 0,00 h 0,381 mm 0,7 UV-I 99 W/m 18,7 C 22,5 C 15,9 km/h (3 Bft) 99,39 %
25.07.2016 16:00 22,9 C 79 % 1015,6 hPa 0,0 l/m 9,3 km/h (2 Bft) O-SO 0,70 h 0,101 mm 2,4 UV-I 450 W/m 19,0 C 22,0 C 13,4 km/h (3 Bft) 97,99 %
25.07.2016 17:00 23,0 C 78 % 1015,4 hPa 0,2 l/m 4,9 km/h (1 Bft) S-SO 0,27 h 0,305 mm 1,4 UV-I 197 W/m 19,0 C 22,8 C 8,9 km/h (2 Bft) 99,22 %
25.07.2016 18:00 22,0 C 84 % 1015,3 hPa 0,0 l/m 5,7 km/h (1 Bft) S-SW 0,07 h 0,127 mm 0,0 UV-I 94 W/m 19,2 C 21,8 C 9,1 km/h (2 Bft) 97,41 %
25.07.2016 19:00 22,0 C 83 % 1015,5 hPa 0,0 l/m 5,5 km/h (1 Bft) W-SW 0,57 h 0,076 mm 0,0 UV-I 111 W/m 18,9 C 21,9 C 9,7 km/h (2 Bft) 99,14 %
25.07.2016 20:00 21,7 C 83 % 1016,0 hPa 0,0 l/m 7,1 km/h (2 Bft) W-SW 0,10 h 0,077 mm 0,0 UV-I 24 W/m 18,7 C 21,3 C 12,0 km/h (2 Bft) 97,60 %
25.07.2016 21:00 20,7 C 85 % 1016,5 hPa 0,0 l/m 5,7 km/h (1 Bft) W-SW 0,00 h 0,025 mm 0,0 UV-I 0 W/m 18,2 C 20,6 C 8,8 km/h (2 Bft) 99,43 %
25.07.2016 22:00 20,1 C 89 % 1016,6 hPa 0,0 l/m 5,2 km/h (1 Bft) S-SW 0,00 h 0,025 mm 0,0 UV-I 0 W/m 18,2 C 20,1 C 7,6 km/h (2 Bft) 97,99 %
25.07.2016 23:00 19,8 C 90 % 1016,5 hPa 0,0 l/m 3,2 km/h (1 Bft) S-SW 0,00 h 0,000 mm 0,0 UV-I 0 W/m 18,0 C 19,8 C 5,0 km/h (1 Bft) 99,53 %
26.07.2016 00:00 19,2 C 93 % 1016,5 hPa 0,0 l/m 4,6 km/h (1 Bft) S-SW 0,00 h 0,000 mm 0,0 UV-I 0 W/m 18,0 C 19,2 C 6,3 km/h (2 Bft) 97,76 %
26.07.2016 01:00 18,8 C 94 % 1016,3 hPa 0,0 l/m 3,1 km/h (1 Bft) S-SW 0,00 h 0,000 mm 0,0 UV-I 0 W/m 17,7 C 18,8 C 4,8 km/h (1 Bft) 99,61 %
26.07.2016 02:00 18,3 C 95 % 1016,4 hPa 0,0 l/m 4,5 km/h (1 Bft) S-SW 0,00 h 0,000 mm 0,0 UV-I 0 W/m 17,4 C 18,3 C 6,7 km/h (2 Bft) 97,83 %
26.07.2016 03:00 18,0 C 94 % 1016,4 hPa 0,0 l/m 2,6 km/h (1 Bft) S-SW 0,00 h 0,000 mm 0,0 UV-I 0 W/m 17,0 C 18,0 C 4,2 km/h (1 Bft) 99,30 %
26.07.2016 04:00 17,9 C 95 % 1016,4 hPa 0,0 l/m 4,0 km/h (1 Bft) S-SW 0,00 h 0,000 mm 0,0 UV-I 0 W/m 17,1 C 17,9 C 5,9 km/h (2 Bft) 97,74 %
26.07.2016 05:00 18,0 C 95 % 1016,7 hPa 0,0 l/m 2,1 km/h (1 Bft) SW 0,00 h 0,000 mm 0,0 UV-I 7 W/m 17,2 C 18,0 C 3,6 km/h (1 Bft) 99,04 %
26.07.2016 06:00 18,0 C 95 % 1016,8 hPa 0,0 l/m 1,8 km/h (1 Bft) SW 0,00 h 0,000 mm 0,0 UV-I 16 W/m 17,2 C 18,0 C 3,1 km/h (1 Bft) 98,04 %
26.07.2016 07:00 18,5 C 94 % 1017,1 hPa 6,0 l/m 4,4 km/h (1 Bft) SW 0,00 h 0,000 mm 0,0 UV-I 46 W/m 17,5 C 18,1 C 7,1 km/h (2 Bft) 99,45 %
26.07.2016 08:00 19,7 C 93 % 1017,2 hPa 0,0 l/m 9,1 km/h (2 Bft) W-SW 0,67 h 0,025 mm 1,1 UV-I 301 W/m 18,5 C 18,7 C 14,1 km/h (3 Bft) 98,05 %
26.07.2016 09:00 21,4 C 87 % 1017,0 hPa 0,0 l/m 8,0 km/h (2 Bft) SW 1,00 h 0,178 mm 2,5 UV-I 470 W/m 19,1 C 20,8 C 13,1 km/h (3 Bft) 99,19 %
26.07.2016 10:00 22,9 C 81 % 1016,9 hPa 0,0 l/m 10,2 km/h (2 Bft) SW 0,70 h 0,305 mm 3,6 UV-I 570 W/m 19,5 C 21,8 C 16,3 km/h (3 Bft) 98,19 %
26.07.2016 11:00 23,6 C 79 % 1016,8 hPa 0,0 l/m 5,3 km/h (1 Bft) W-SW 0,37 h 0,381 mm 3,9 UV-I 522 W/m 19,7 C 23,5 C 10,2 km/h (2 Bft) 98,69 %
26.07.2016 12:00 24,8 C 73 % 1016,5 hPa 0,0 l/m 4,5 km/h (1 Bft) W 0,67 h 0,330 mm 5,2 UV-I 673 W/m 19,6 C 24,8 C 8,6 km/h (2 Bft) 98,71 %
26.07.2016 13:00 22,7 C 76 % 1016,4 hPa 0,0 l/m 9,4 km/h (2 Bft) W 0,00 h 0,432 mm 1,6 UV-I 189 W/m 18,3 C 21,9 C 15,7 km/h (3 Bft) 98,46 %
26.07.2016 14:00 24,3 C 72 % 1015,9 hPa 0,0 l/m 7,0 km/h (2 Bft) W-SW 0,83 h 0,152 mm 5,3 UV-I 714 W/m 18,8 C 24,0 C 12,4 km/h (3 Bft) 98,42 %
26.07.2016 15:00 26,6 C 64 % 1015,4 hPa 0,0 l/m 7,7 km/h (2 Bft) W 1,00 h 0,483 mm 4,6 UV-I 772 W/m 19,1 C 26,2 C 13,9 km/h (3 Bft) 98,99 %
26.07.2016 16:00 27,2 C 58 % 1015,0 hPa 0,0 l/m 5,1 km/h (1 Bft) W 1,00 h 0,508 mm 3,1 UV-I 618 W/m 18,2 C 27,1 C 9,6 km/h (2 Bft) 98,48 %
26.07.2016 17:00 27,6 C 55 % 1014,9 hPa 0,0 l/m 4,3 km/h (1 Bft) N-NW 0,97 h 0,432 mm 1,7 UV-I 478 W/m 17,7 C 27,6 C 10,1 km/h (2 Bft) 98,63 %
26.07.2016 18:00 26,6 C 61 % 1014,9 hPa 0,0 l/m 3,2 km/h (1 Bft) W-NW 0,70 h 0,330 mm 0,7 UV-I 233 W/m 18,4 C 26,6 C 7,3 km/h (2 Bft) 99,23 %
26.07.2016 19:00 25,6 C 62 % 1015,4 hPa 0,0 l/m 2,8 km/h (1 Bft) NW 0,87 h 0,178 mm 0,0 UV-I 138 W/m 17,8 C 25,6 C 6,6 km/h (2 Bft) 98,22 %
26.07.2016 20:00 23,9 C 72 % 1015,9 hPa 2,4 l/m 4,4 km/h (1 Bft) W 0,43 h 0,101 mm 0,0 UV-I 53 W/m 18,5 C 23,7 C 9,2 km/h (2 Bft) 99,41 %
26.07.2016 21:00 19,3 C 91 % 1016,3 hPa 4,8 l/m 3,9 km/h (1 Bft) W 0,00 h 0,051 mm 0,0 UV-I 0 W/m 17,8 C 19,2 C 6,9 km/h (2 Bft) 98,41 %
26.07.2016 22:00 18,8 C 93 % 1016,9 hPa 0,2 l/m 3,4 km/h (1 Bft) S-SO 0,00 h 0,000 mm 0,0 UV-I 0 W/m 17,7 C 18,8 C 6,2 km/h (2 Bft) 99,53 %
26.07.2016 23:00 18,8 C 93 % 1016,8 hPa 0,2 l/m 5,7 km/h (1 Bft) S-SW 0,00 h 0,000 mm 0,0 UV-I 0 W/m 17,6 C 18,7 C 8,6 km/h (2 Bft) 97,91 %
27.07.2016 00:00 18,3 C 94 % 1016,7 hPa 0,0 l/m 4,7 km/h (1 Bft) S-SW 0,00 h 0,000 mm 0,0 UV-I 0 W/m 17,3 C 18,2 C 6,9 km/h (2 Bft) 99,42 %
27.07.2016 01:00 18,0 C 95 % 1016,6 hPa 0,0 l/m 3,2 km/h (1 Bft) SW 0,00 h 0,000 mm 0,0 UV-I 0 W/m 17,2 C 18,0 C 5,1 km/h (1 Bft) 97,68 %
27.07.2016 02:00 17,8 C 95 % 1016,3 hPa 0,0 l/m 3,9 km/h (1 Bft) S-SW 0,00 h 0,000 mm 0,0 UV-I 0 W/m 17,0 C 17,8 C 5,7 km/h (1 Bft) 99,15 %
27.07.2016 03:00 17,7 C 96 % 1015,9 hPa 0,0 l/m 5,1 km/h (1 Bft) S-SW 0,00 h 0,000 mm 0,0 UV-I 0 W/m 17,0 C 17,7 C 7,5 km/h (2 Bft) 97,81 %
27.07.2016 04:00 17,8 C 96 % 1015,8 hPa 0,0 l/m 4,8 km/h (1 Bft) S 0,00 h 0,000 mm 0,0 UV-I 0 W/m 17,1 C 17,8 C 7,3 km/h (2 Bft) 99,43 %
27.07.2016 05:00 17,4 C 96 % 1015,6 hPa 0,0 l/m 2,5 km/h (1 Bft) S 0,00 h 0,000 mm 0,0 UV-I 8 W/m 16,7 C 17,4 C 4,2 km/h (1 Bft) 98,12 %
27.07.2016 06:00 17,2 C 96 % 1015,6 hPa 0,0 l/m 2,8 km/h (1 Bft) S 0,00 h 0,000 mm 0,0 UV-I 34 W/m 16,5 C 17,2 C 4,6 km/h (1 Bft) 99,03 %
27.07.2016 07:00 18,1 C 95 % 1015,7 hPa 0,0 l/m 2,9 km/h (1 Bft) S 0,00 h 0,025 mm 0,5 UV-I 93 W/m 17,3 C 18,1 C 5,0 km/h (1 Bft) 97,93 %
27.07.2016 08:00 19,1 C 94 % 1015,6 hPa 0,0 l/m 4,0 km/h (1 Bft) SW 0,07 h 0,051 mm 0,9 UV-I 210 W/m 18,0 C 19,1 C 6,6 km/h (2 Bft) 99,48 %
27.07.2016 09:00 20,7 C 88 % 1015,6 hPa 0,0 l/m 3,0 km/h (1 Bft) S 0,87 h 0,127 mm 1,9 UV-I 396 W/m 18,7 C 20,7 C 5,6 km/h (1 Bft) 97,85 %
27.07.2016 10:00 21,7 C 84 % 1015,5 hPa 0,0 l/m 2,6 km/h (1 Bft) S-SW 1,00 h 0,229 mm 2,7 UV-I 471 W/m 18,8 C 21,7 C 5,1 km/h (1 Bft) 99,47 %
27.07.2016 11:00 23,0 C 81 % 1015,3 hPa 0,2 l/m 3,0 km/h (1 Bft) S-SW 0,90 h 0,279 mm 4,3 UV-I 616 W/m 19,5 C 23,0 C 6,2 km/h (2 Bft) 98,13 %
27.07.2016 12:00 24,1 C 76 % 1014,7 hPa 0,0 l/m 4,7 km/h (1 Bft) W-SW 0,90 h 0,381 mm 5,4 UV-I 725 W/m 19,4 C 24,0 C 9,1 km/h (2 Bft) 99,73 %
27.07.2016 13:00 24,9 C 70 % 1013,9 hPa 0,0 l/m 4,7 km/h (1 Bft) W 0,87 h 0,457 mm 5,8 UV-I 775 W/m 19,2 C 24,9 C 9,4 km/h (2 Bft) 98,01 %
27.07.2016 14:00 26,3 C 66 % 1013,3 hPa 0,0 l/m 4,0 km/h (1 Bft) W-SW 1,00 h 0,508 mm 5,5 UV-I 842 W/m 19,3 C 26,2 C 8,1 km/h (2 Bft) 99,18 %
27.07.2016 15:00 26,9 C 63 % 1012,8 hPa 0,0 l/m 3,9 km/h (1 Bft) N-NO 0,97 h 0,559 mm 4,3 UV-I 770 W/m 19,2 C 26,9 C 7,5 km/h (2 Bft) 97,92 %
27.07.2016 16:00 27,0 C 59 % 1012,3 hPa 0,0 l/m 4,5 km/h (1 Bft) S 0,77 h 0,508 mm 2,5 UV-I 484 W/m 18,4 C 26,9 C 8,4 km/h (2 Bft) 98,60 %
27.07.2016 17:00 25,6 C 66 % 1012,0 hPa 0,0 l/m 3,9 km/h (1 Bft) SW 0,00 h 0,330 mm 0,8 UV-I 93 W/m 18,7 C 25,5 C 6,4 km/h (2 Bft) 98,00 %
27.07.2016 18:00 23,5 C 78 % 1012,0 hPa 0,0 l/m 5,5 km/h (1 Bft) S-SO 0,00 h 0,077 mm 0,5 UV-I 117 W/m 19,4 C 23,3 C 10,1 km/h (2 Bft) 98,52 %
27.07.2016 19:00 22,0 C 78 % 1012,6 hPa 0,0 l/m 6,5 km/h (2 Bft) S 0,00 h 0,101 mm 0,0 UV-I 15 W/m 17,9 C 21,4 C 14,7 km/h (3 Bft) 98,36 %
27.07.2016 20:00 18,1 C 91 % 1013,8 hPa 2,2 l/m 6,2 km/h (2 Bft) W 0,00 h 0,026 mm 0,0 UV-I 8 W/m 16,5 C 17,7 C 12,4 km/h (3 Bft) 98,32 %
27.07.2016 21:00 18,1 C 93 % 1015,1 hPa 1,6 l/m 9,4 km/h (2 Bft) S-SW 0,00 h 0,000 mm 0,0 UV-I 0 W/m 17,0 C 16,8 C 15,2 km/h (3 Bft) 98,57 %
27.07.2016 22:00 17,9 C 95 % 1015,9 hPa 4,2 l/m 9,2 km/h (2 Bft) S-SW 0,00 h 0,000 mm 0,0 UV-I 0 W/m 17,0 C 16,7 C 14,8 km/h (3 Bft) 97,71 %
27.07.2016 23:00 17,8 C 95 % 1015,8 hPa 1,4 l/m 5,9 km/h (2 Bft) S 0,00 h 0,000 mm 0,0 UV-I 0 W/m 16,9 C 17,5 C 9,9 km/h (2 Bft) 98,48 %
28.07.2016 00:00 17,7 C 95 % 1015,9 hPa 0,0 l/m 3,6 km/h (1 Bft) W 0,00 h 0,000 mm 0,0 UV-I 0 W/m 16,9 C 17,7 C 5,8 km/h (2 Bft) 97,74 %
28.07.2016 01:00 17,7 C 96 % 1015,9 hPa 0,0 l/m 5,2 km/h (1 Bft) W 0,00 h 0,000 mm 0,0 UV-I 0 W/m 16,9 C 17,6 C 8,6 km/h (2 Bft) 98,57 %
28.07.2016 02:00 17,5 C 94 % 1015,7 hPa 0,0 l/m 5,0 km/h (1 Bft) W-SW 0,00 h 0,000 mm 0,0 UV-I 0 W/m 16,5 C 17,4 C 8,4 km/h (2 Bft) 97,86 %
28.07.2016 03:00 17,3 C 94 % 1015,8 hPa 0,0 l/m 2,2 km/h (1 Bft) W-SW 0,00 h 0,000 mm 0,0 UV-I 0 W/m 16,4 C 17,3 C 4,3 km/h (1 Bft) 98,51 %
28.07.2016 04:00 17,2 C 96 % 1015,8 hPa 0,0 l/m 0,9 km/h (0 Bft) W-SW 0,00 h 0,000 mm 0,0 UV-I 0 W/m 16,5 C 17,2 C 2,1 km/h (1 Bft) 98,02 %
28.07.2016 05:00 17,3 C 96 % 1015,9 hPa 0,0 l/m 1,5 km/h (1 Bft) W-SW 0,00 h 0,000 mm 0,0 UV-I 6 W/m 16,7 C 17,3 C 2,9 km/h (1 Bft) 98,85 %
28.07.2016 06:00 17,4 C 96 % 1015,9 hPa 0,0 l/m 3,4 km/h (1 Bft) S-SW 0,00 h 0,000 mm 0,0 UV-I 15 W/m 16,7 C 17,4 C 5,5 km/h (1 Bft) 97,94 %
28.07.2016 07:00 17,6 C 96 % 1016,2 hPa 0,0 l/m 2,7 km/h (1 Bft) S-SW 0,00 h 0,000 mm 0,0 UV-I 60 W/m 17,0 C 17,6 C 4,5 km/h (1 Bft) 98,93 %
28.07.2016 08:00 18,2 C 93 % 1016,5 hPa 0,0 l/m 5,9 km/h (2 Bft) SW 0,00 h 0,025 mm 0,7 UV-I 138 W/m 17,1 C 18,0 C 9,3 km/h (2 Bft) 97,72 %
28.07.2016 09:00 18,9 C 90 % 1016,6 hPa 0,0 l/m 6,5 km/h (2 Bft) W-SW 0,00 h 0,077 mm 1,3 UV-I 224 W/m 17,2 C 18,8 C 10,8 km/h (2 Bft) 98,72 %
28.07.2016 10:00 19,4 C 86 % 1016,7 hPa 0,0 l/m 5,4 km/h (1 Bft) SW 0,00 h 0,127 mm 1,4 UV-I 213 W/m 17,0 C 19,4 C 9,3 km/h (2 Bft) 97,78 %
28.07.2016 11:00 19,9 C 86 % 1016,7 hPa 0,0 l/m 3,6 km/h (1 Bft) W 0,00 h 0,127 mm 2,2 UV-I 288 W/m 17,4 C 19,9 C 6,9 km/h (2 Bft) 98,95 %
28.07.2016 12:00 21,3 C 82 % 1016,4 hPa 0,0 l/m 2,7 km/h (1 Bft) W-SW 0,73 h 0,177 mm 4,0 UV-I 509 W/m 18,0 C 21,3 C 6,1 km/h (2 Bft) 96,91 %
28.07.2016 13:00 22,1 C 78 % 1016,0 hPa 0,0 l/m 2,7 km/h (1 Bft) W-NW 0,30 h 0,305 mm 3,6 UV-I 463 W/m 18,1 C 22,1 C 5,9 km/h (2 Bft) 99,18 %
28.07.2016 14:00 22,7 C 75 % 1015,4 hPa 0,0 l/m 4,3 km/h (1 Bft) W-SW 0,80 h 0,280 mm 4,4 UV-I 592 W/m 18,0 C 22,7 C 8,0 km/h (2 Bft) 97,93 %
28.07.2016 15:00 23,5 C 64 % 1014,7 hPa 0,0 l/m 4,2 km/h (1 Bft) W-SW 0,93 h 0,381 mm 4,4 UV-I 697 W/m 16,3 C 23,4 C 7,7 km/h (2 Bft) 99,22 %
28.07.2016 16:00 24,6 C 57 % 1014,4 hPa 0,0 l/m 4,3 km/h (1 Bft) W 0,77 h 0,457 mm 2,8 UV-I 569 W/m 15,3 C 24,5 C 8,1 km/h (2 Bft) 98,38 %
28.07.2016 17:00 24,7 C 54 % 1014,1 hPa 0,0 l/m 2,8 km/h (1 Bft) W 0,87 h 0,381 mm 1,6 UV-I 396 W/m 14,8 C 24,7 C 5,6 km/h (1 Bft) 99,70 %
28.07.2016 18:00 24,2 C 59 % 1014,1 hPa 0,0 l/m 3,6 km/h (1 Bft) W 0,37 h 0,254 mm 0,7 UV-I 196 W/m 15,7 C 24,2 C 6,0 km/h (2 Bft) 97,94 %
28.07.2016 19:00 23,1 C 69 % 1014,1 hPa 0,0 l/m 1,8 km/h (1 Bft) SW 0,00 h 0,152 mm 0,0 UV-I 47 W/m 17,1 C 23,1 C 3,6 km/h (1 Bft) 99,60 %
28.07.2016 20:00 21,5 C 73 % 1014,5 hPa 0,0 l/m 2,7 km/h (1 Bft) N-NO 0,23 h 0,051 mm 0,0 UV-I 18 W/m 16,4 C 21,4 C 5,6 km/h (1 Bft) 97,72 %
28.07.2016 21:00 20,1 C 82 % 1014,7 hPa 0,0 l/m 1,0 km/h (0 Bft) O-SO 0,00 h 0,025 mm 0,0 UV-I 0 W/m 16,9 C 20,1 C 1,8 km/h (1 Bft) 99,18 %
28.07.2016 22:00 19,6 C 87 % 1014,6 hPa 0,0 l/m 4,4 km/h (1 Bft) S-SW 0,00 h 0,000 mm 0,0 UV-I 0 W/m 17,3 C 19,6 C 6,7 km/h (2 Bft) 97,88 %
28.07.2016 23:00 18,8 C 90 % 1014,4 hPa 0,0 l/m 3,8 km/h (1 Bft) SW 0,00 h 0,000 mm 0,0 UV-I 0 W/m 17,0 C 18,8 C 5,6 km/h (1 Bft) 99,40 %
29.07.2016 00:00 17,7 C 93 % 1014,3 hPa 0,0 l/m 1,6 km/h (1 Bft) S 0,00 h 0,000 mm 0,0 UV-I 0 W/m 16,6 C 17,7 C 2,9 km/h (1 Bft) 97,91 %
29.07.2016 01:00 17,0 C 95 % 1014,3 hPa 0,0 l/m 2,5 km/h (1 Bft) S 0,00 h 0,000 mm 0,0 UV-I 0 W/m 16,1 C 17,0 C 3,7 km/h (1 Bft) 99,40 %
29.07.2016 02:00 16,7 C 95 % 1014,2 hPa 0,0 l/m 2,9 km/h (1 Bft) S 0,00 h 0,000 mm 0,0 UV-I 0 W/m 16,0 C 16,7 C 4,6 km/h (1 Bft) 98,10 %
29.07.2016 03:00 16,2 C 95 % 1014,1 hPa 0,0 l/m 3,5 km/h (1 Bft) S-SW 0,00 h 0,000 mm 0,0 UV-I 0 W/m 15,4 C 16,2 C 5,4 km/h (1 Bft) 99,64 %
29.07.2016 04:00 15,9 C 95 % 1014,1 hPa 0,0 l/m 1,3 km/h (1 Bft) S-SW 0,00 h 0,000 mm 0,0 UV-I 0 W/m 15,0 C 15,9 C 2,9 km/h (1 Bft) 98,31 %
29.07.2016 05:00 15,3 C 95 % 1014,3 hPa 0,0 l/m 0,7 km/h (0 Bft) S-SW 0,00 h 0,000 mm 0,0 UV-I 6 W/m 14,5 C 15,3 C 1,7 km/h (1 Bft) 99,21 %
29.07.2016 06:00 15,8 C 94 % 1014,5 hPa 0,0 l/m 2,2 km/h (1 Bft) S 0,20 h 0,000 mm 0,0 UV-I 59 W/m 14,9 C 15,8 C 4,1 km/h (1 Bft) 97,75 %
29.07.2016 07:00 17,0 C 93 % 1014,9 hPa 0,0 l/m 2,3 km/h (1 Bft) S-SW 0,00 h 0,025 mm 0,4 UV-I 126 W/m 15,8 C 17,0 C 4,3 km/h (1 Bft) 99,44 %
29.07.2016 08:00 18,4 C 89 % 1015,2 hPa 0,0 l/m 6,1 km/h (2 Bft) SW 0,50 h 0,077 mm 1,1 UV-I 268 W/m 16,5 C 18,2 C 10,5 km/h (2 Bft) 98,10 %
29.07.2016 09:00 20,9 C 80 % 1015,0 hPa 0,0 l/m 11,1 km/h (2 Bft) S-SW 0,77 h 0,152 mm 2,3 UV-I 431 W/m 17,2 C 19,3 C 17,7 km/h (3 Bft) 99,32 %
29.07.2016 10:00 22,0 C 75 % 1015,1 hPa 0,0 l/m 14,0 km/h (3 Bft) SW 1,00 h 0,305 mm 3,7 UV-I 574 W/m 17,3 C 20,0 C 22,3 km/h (4 Bft) 98,20 %
29.07.2016 11:00 22,8 C 71 % 1014,9 hPa 0,0 l/m 11,6 km/h (2 Bft) S-SW 0,90 h 0,406 mm 4,8 UV-I 718 W/m 17,3 C 21,3 C 18,8 km/h (3 Bft) 99,10 %
29.07.2016 12:00 23,6 C 67 % 1014,4 hPa 0,0 l/m 8,5 km/h (2 Bft) W-SW 0,23 h 0,483 mm 3,6 UV-I 430 W/m 17,0 C 23,0 C 14,2 km/h (3 Bft) 98,43 %
29.07.2016 13:00 22,3 C 78 % 1014,2 hPa 2,6 l/m 3,7 km/h (1 Bft) W 0,27 h 0,305 mm 3,8 UV-I 421 W/m 18,1 C 22,2 C 6,6 km/h (2 Bft) 99,17 %
29.07.2016 14:00 24,5 C 65 % 1013,7 hPa 0,0 l/m 9,7 km/h (2 Bft) W-SW 0,77 h 0,279 mm 5,0 UV-I 760 W/m 17,5 C 23,7 C 16,1 km/h (3 Bft) 98,50 %
29.07.2016 15:00 25,4 C 58 % 1013,4 hPa 0,0 l/m 9,3 km/h (2 Bft) W-SW 0,70 h 0,483 mm 4,0 UV-I 586 W/m 16,6 C 24,8 C 16,7 km/h (3 Bft) 99,24 %
29.07.2016 16:00 25,5 C 58 % 1012,9 hPa 0,0 l/m 6,6 km/h (2 Bft) W 0,60 h 0,457 mm 2,6 UV-I 489 W/m 16,6 C 25,3 C 12,7 km/h (3 Bft) 98,77 %
29.07.2016 17:00 25,5 C 57 % 1012,8 hPa 0,0 l/m 7,2 km/h (2 Bft) W-SW 0,73 h 0,355 mm 1,6 UV-I 391 W/m 16,5 C 25,2 C 13,5 km/h (3 Bft) 99,04 %
29.07.2016 18:00 25,6 C 56 % 1012,7 hPa 0,0 l/m 5,9 km/h (2 Bft) W-SW 1,00 h 0,305 mm 0,7 UV-I 284 W/m 16,2 C 25,4 C 12,0 km/h (2 Bft) 98,83 %
29.07.2016 19:00 24,9 C 58 % 1012,6 hPa 0,0 l/m 2,2 km/h (1 Bft) W 0,60 h 0,229 mm 0,0 UV-I 112 W/m 16,1 C 24,9 C 5,0 km/h (1 Bft) 98,82 %
29.07.2016 20:00 22,2 C 72 % 1012,8 hPa 0,0 l/m 0,2 km/h (0 Bft) N 0,07 h 0,101 mm 0,0 UV-I 14 W/m 16,9 C 22,2 C 1,0 km/h (0 Bft) 99,06 %
29.07.2016 21:00 19,6 C 83 % 1013,1 hPa 0,0 l/m 0,4 km/h (0 Bft) W 0,00 h 0,026 mm 0,0 UV-I 0 W/m 16,6 C 19,6 C 1,4 km/h (1 Bft) 98,42 %
29.07.2016 22:00 19,3 C 84 % 1013,3 hPa 0,0 l/m 2,1 km/h (1 Bft) SO 0,00 h 0,000 mm 0,0 UV-I 0 W/m 16,5 C 19,3 C 4,5 km/h (1 Bft) 98,88 %
29.07.2016 23:00 18,3 C 88 % 1013,5 hPa 0,0 l/m 1,4 km/h (1 Bft) S-SO 0,00 h 0,000 mm 0,0 UV-I 0 W/m 16,3 C 18,3 C 3,0 km/h (1 Bft) 98,66 %
30.07.2016 00:00 17,5 C 91 % 1013,6 hPa 0,0 l/m 1,3 km/h (1 Bft) S-SO 0,00 h 0,000 mm 0,0 UV-I 0 W/m 16,0 C 17,5 C 2,3 km/h (1 Bft) 98,98 %
30.07.2016 01:00 16,9 C 93 % 1013,6 hPa 0,0 l/m 1,0 km/h (0 Bft) S-SO 0,00 h 0,000 mm 0,0 UV-I 0 W/m 15,7 C 16,9 C 2,4 km/h (1 Bft) 98,46 %
30.07.2016 02:00 16,4 C 94 % 1013,5 hPa 0,0 l/m 0,6 km/h (0 Bft) S-SO 0,00 h 0,000 mm 0,0 UV-I 0 W/m 15,4 C 16,4 C 1,7 km/h (1 Bft) 99,02 %
30.07.2016 03:00 15,8 C 94 % 1013,4 hPa 0,0 l/m 0,5 km/h (0 Bft) S-SO 0,00 h 0,000 mm 0,0 UV-I 0 W/m 14,9 C 15,8 C 1,1 km/h (1 Bft) 98,38 %
30.07.2016 04:00 15,4 C 94 % 1013,2 hPa 0,0 l/m 1,0 km/h (0 Bft) S-SO 0,00 h 0,000 mm 0,0 UV-I 0 W/m 14,5 C 15,4 C 2,3 km/h (1 Bft) 98,99 %
30.07.2016 05:00 14,9 C 95 % 1013,4 hPa 0,0 l/m 1,2 km/h (1 Bft) S-SO 0,00 h 0,000 mm 0,0 UV-I 8 W/m 14,1 C 14,9 C 2,6 km/h (1 Bft) 97,82 %
30.07.2016 06:00 15,6 C 94 % 1013,5 hPa 0,0 l/m 1,7 km/h (1 Bft) S-SO 0,07 h 0,000 mm 0,0 UV-I 30 W/m 14,7 C 15,6 C 3,7 km/h (1 Bft) 98,51 %
30.07.2016 07:00 18,0 C 90 % 1013,7 hPa 0,0 l/m 0,9 km/h (0 Bft) S-SO 1,00 h 0,025 mm 0,6 UV-I 191 W/m 16,3 C 18,0 C 2,2 km/h (1 Bft) 98,63 %
30.07.2016 08:00 20,3 C 82 % 1014,0 hPa 0,0 l/m 2,3 km/h (1 Bft) S 1,00 h 0,102 mm 1,3 UV-I 342 W/m 17,1 C 20,3 C 4,9 km/h (1 Bft) 98,56 %
30.07.2016 09:00 22,2 C 74 % 1014,0 hPa 0,0 l/m 2,4 km/h (1 Bft) S 1,00 h 0,203 mm 2,6 UV-I 476 W/m 17,3 C 22,2 C 5,4 km/h (1 Bft) 98,64 %
30.07.2016 10:00 23,9 C 67 % 1013,7 hPa 0,0 l/m 2,6 km/h (1 Bft) S 1,00 h 0,305 mm 4,1 UV-I 665 W/m 17,3 C 23,9 C 5,4 km/h (1 Bft) 99,14 %
30.07.2016 11:00 25,5 C 60 % 1013,3 hPa 0,0 l/m 3,6 km/h (1 Bft) S 1,00 h 0,432 mm 5,6 UV-I 768 W/m 17,2 C 25,5 C 6,8 km/h (2 Bft) 98,48 %
30.07.2016 12:00 26,8 C 58 % 1013,1 hPa 0,0 l/m 3,9 km/h (1 Bft) S 1,00 h 0,508 mm 6,5 UV-I 823 W/m 17,7 C 26,7 C 7,6 km/h (2 Bft) 99,06 %
30.07.2016 13:00 27,3 C 55 % 1012,7 hPa 0,0 l/m 3,8 km/h (1 Bft) W-SW 0,60 h 0,559 mm 4,9 UV-I 611 W/m 17,4 C 27,3 C 7,1 km/h (2 Bft) 98,01 %
30.07.2016 14:00 27,8 C 55 % 1012,2 hPa 0,0 l/m 2,8 km/h (1 Bft) W-NW 1,00 h 0,431 mm 5,9 UV-I 812 W/m 17,9 C 27,8 C 6,3 km/h (2 Bft) 99,25 %
30.07.2016 15:00 29,0 C 50 % 1011,6 hPa 0,0 l/m 5,5 km/h (1 Bft) SW 0,93 h 0,559 mm 4,5 UV-I 736 W/m 17,5 C 28,9 C 10,1 km/h (2 Bft) 98,04 %
30.07.2016 16:00 29,5 C 47 % 1011,3 hPa 0,0 l/m 4,3 km/h (1 Bft) W-NW 1,00 h 0,534 mm 3,0 UV-I 598 W/m 17,1 C 29,5 C 8,8 km/h (2 Bft) 99,47 %
30.07.2016 17:00 29,6 C 47 % 1010,9 hPa 0,0 l/m 4,5 km/h (1 Bft) NO 1,00 h 0,431 mm 1,7 UV-I 456 W/m 17,2 C 29,5 C 8,2 km/h (2 Bft) 98,17 %
30.07.2016 18:00 29,3 C 47 % 1010,7 hPa 0,0 l/m 3,6 km/h (1 Bft) O 1,00 h 0,356 mm 0,7 UV-I 277 W/m 16,9 C 29,3 C 5,8 km/h (2 Bft) 99,61 %
30.07.2016 19:00 28,3 C 53 % 1010,6 hPa 0,0 l/m 4,0 km/h (1 Bft) O 0,57 h 0,229 mm 0,0 UV-I 105 W/m 17,7 C 28,3 C 6,1 km/h (2 Bft) 98,52 %
30.07.2016 20:00 25,8 C 63 % 1010,7 hPa 0,0 l/m 3,7 km/h (1 Bft) O 0,07 h 0,101 mm 0,0 UV-I 15 W/m 18,2 C 25,9 C 5,8 km/h (2 Bft) 99,04 %
30.07.2016 21:00 23,5 C 73 % 1010,8 hPa 0,0 l/m 2,7 km/h (1 Bft) O-SO 0,00 h 0,026 mm 0,0 UV-I 0 W/m 18,4 C 23,5 C 4,6 km/h (1 Bft) 98,62 %
30.07.2016 22:00 22,8 C 76 % 1011,1 hPa 0,0 l/m 4,0 km/h (1 Bft) S-SO 0,00 h 0,025 mm 0,0 UV-I 0 W/m 18,3 C 22,8 C 7,8 km/h (2 Bft) 98,80 %
30.07.2016 23:00 21,6 C 81 % 1011,1 hPa 0,0 l/m 0,7 km/h (0 Bft) S-SO 0,00 h 0,025 mm 0,0 UV-I 0 W/m 18,2 C 21,6 C 1,8 km/h (1 Bft) 98,78 %
31.07.2016 00:00 20,3 C 87 % 1011,0 hPa 0,0 l/m 1,8 km/h (1 Bft) O-NO 0,00 h 0,000 mm 0,0 UV-I 0 W/m 18,0 C 20,3 C 3,5 km/h (1 Bft) 98,93 %
31.07.2016 01:00 19,6 C 90 % 1010,7 hPa 0,0 l/m 0,7 km/h (0 Bft) W-NW 0,00 h 0,000 mm 0,0 UV-I 0 W/m 17,8 C 19,6 C 1,8 km/h (1 Bft) 98,38 %
31.07.2016 02:00 19,3 C 90 % 1010,6 hPa 0,0 l/m 1,0 km/h (0 Bft) W-NW 0,00 h 0,000 mm 0,0 UV-I 0 W/m 17,6 C 19,3 C 2,0 km/h (1 Bft) 98,67 %
31.07.2016 03:00 19,0 C 91 % 1010,4 hPa 0,0 l/m 0,7 km/h (0 Bft) W-NW 0,00 h 0,000 mm 0,0 UV-I 0 W/m 17,5 C 19,0 C 1,3 km/h (1 Bft) 98,94 %
31.07.2016 04:00 18,4 C 91 % 1010,2 hPa 0,0 l/m 0,4 km/h (0 Bft) N 0,00 h 0,000 mm 0,0 UV-I 0 W/m 16,9 C 18,4 C 1,2 km/h (1 Bft) 98,77 %
31.07.2016 05:00 17,6 C 92 % 1009,9 hPa 0,0 l/m 0,6 km/h (0 Bft) N 0,00 h 0,000 mm 0,0 UV-I 7 W/m 16,3 C 17,6 C 1,5 km/h (1 Bft) 98,64 %
31.07.2016 06:00 18,6 C 90 % 1009,7 hPa 0,0 l/m 4,1 km/h (1 Bft) O 0,00 h 0,000 mm 0,0 UV-I 35 W/m 17,0 C 18,4 C 6,8 km/h (2 Bft) 98,76 %
31.07.2016 07:00 20,1 C 88 % 1009,6 hPa 0,0 l/m 2,6 km/h (1 Bft) O-NO 0,63 h 0,025 mm 0,6 UV-I 180 W/m 18,1 C 20,1 C 4,2 km/h (1 Bft) 98,45 %
31.07.2016 08:00 22,7 C 75 % 1009,5 hPa 0,0 l/m 5,5 km/h (1 Bft) O-NO 0,93 h 0,102 mm 1,3 UV-I 337 W/m 17,9 C 22,6 C 8,5 km/h (2 Bft) 98,23 %
31.07.2016 09:00 24,6 C 63 % 1009,8 hPa 0,0 l/m 3,6 km/h (1 Bft) O-NO 1,00 h 0,229 mm 2,5 UV-I 476 W/m 17,0 C 24,6 C 6,1 km/h (2 Bft) 98,96 %
31.07.2016 10:00 25,9 C 61 % 1010,1 hPa 0,0 l/m 3,0 km/h (1 Bft) W-NW 1,00 h 0,330 mm 3,8 UV-I 625 W/m 17,9 C 25,9 C 7,2 km/h (2 Bft) 98,64 %
31.07.2016 11:00 26,8 C 59 % 1010,0 hPa 0,0 l/m 6,8 km/h (2 Bft) W 1,00 h 0,406 mm 5,1 UV-I 735 W/m 18,1 C 26,6 C 12,9 km/h (3 Bft) 99,03 %
31.07.2016 12:00 27,6 C 53 % 1009,8 hPa 0,0 l/m 11,5 km/h (2 Bft) W-SW 1,00 h 0,508 mm 6,2 UV-I 822 W/m 17,1 C 26,9 C 22,7 km/h (4 Bft) 98,43 %
31.07.2016 13:00 26,7 C 56 % 1009,9 hPa 0,0 l/m 13,5 km/h (3 Bft) W-SW 0,63 h 0,610 mm 5,0 UV-I 633 W/m 17,2 C 25,6 C 23,4 km/h (4 Bft) 98,71 %
31.07.2016 14:00 24,8 C 65 % 1010,0 hPa 0,0 l/m 13,0 km/h (3 Bft) SW 0,60 h 0,508 mm 3,8 UV-I 510 W/m 17,8 C 23,5 C 22,1 km/h (4 Bft) 98,47 %
31.07.2016 15:00 23,1 C 69 % 1010,2 hPa 0,0 l/m 13,0 km/h (3 Bft) W-SW 0,00 h 0,381 mm 1,1 UV-I 148 W/m 17,0 C 21,4 C 20,3 km/h (4 Bft) 99,24 %
31.07.2016 16:00 20,3 C 84 % 1011,0 hPa 1,4 l/m 11,6 km/h (2 Bft) W-SW 0,13 h 0,152 mm 1,0 UV-I 135 W/m 17,3 C 18,5 C 17,8 km/h (3 Bft) 97,91 %
31.07.2016 17:00 19,1 C 88 % 1011,2 hPa 0,0 l/m 5,0 km/h (1 Bft) W 0,00 h 0,102 mm 0,7 UV-I 91 W/m 17,1 C 18,9 C 8,6 km/h (2 Bft) 99,50 %
31.07.2016 18:00 19,6 C 87 % 1010,9 hPa 0,0 l/m 1,7 km/h (1 Bft) W-SW 0,00 h 0,051 mm 0,5 UV-I 85 W/m 17,4 C 19,6 C 3,7 km/h (1 Bft) 98,03 %
31.07.2016 19:00 19,7 C 88 % 1010,6 hPa 0,0 l/m 2,0 km/h (1 Bft) S-SW 0,00 h 0,050 mm 0,0 UV-I 37 W/m 17,6 C 19,7 C 3,8 km/h (1 Bft) 99,31 %
31.07.2016 20:00 19,5 C 90 % 1011,4 hPa 0,0 l/m 9,8 km/h (2 Bft) SW 0,00 h 0,026 mm 0,0 UV-I 11 W/m 17,9 C 18,1 C 15,7 km/h (3 Bft) 97,75 %
31.07.2016 21:00 19,0 C 88 % 1012,3 hPa 0,0 l/m 12,4 km/h (3 Bft) W-SW 0,00 h 0,025 mm 0,0 UV-I 0 W/m 17,0 C 16,8 C 18,8 km/h (3 Bft) 99,32 %
31.07.2016 22:00 18,7 C 89 % 1012,7 hPa 0,0 l/m 9,6 km/h (2 Bft) SW 0,00 h 0,026 mm 0,0 UV-I 0 W/m 16,7 C 17,3 C 15,1 km/h (3 Bft) 98,21 %
31.07.2016 23:00 18,1 C 90 % 1012,6 hPa 0,0 l/m 7,5 km/h (2 Bft) SW 0,00 h 0,025 mm 0,0 UV-I 0 W/m 16,3 C 17,5 C 11,7 km/h (2 Bft) 99,41 %
Min-Datum _ 30.07.16 30.07.16 31.07.16 - 25.07.16 - - - - - 28.07.16 30.07.16 25.07.16 28.07.16
_ Min-Zeit 05:30 16:58 08:20 - 00:00 - - - - - 17:38 05:30 00:00 12:25
Minimum _ 14,7 C 44 % 1009,3 hPa - 0,0 km/h (0 Bft) - - - - - 13,6 C 14,7 C 0,0 km/h (0 Bft) 75,44 %
Max-Datum _ 30.07.16 25.07.16 26.07.16 26.07.16 31.07.16 - 28.07.16 25.07.16 25.07.16 29.07.16 27.07.16 30.07.16 31.07.16 25.07.16
_ Max-Zeit 16:00 05:32 07:28 07:50 13:10 - 12:05 14:02 13:42 14:04 11:20 16:00 13:10 00:02
Maximum _ 29,9 C 96 % 1017,2 hPa 6,0 l/m 21,0 km/h
W-SW (4 Bft)
- 0,08 h 0,610 mm 7,5 UV-I 1206 W/m 20,6 C 29,9 C 35,4 km/h
W (5 Bft)
100,00 %
Durchschnitt _ 21,2 C 81 % 1014,2 hPa #27,8 l/m 4,5 km/h (1 Bft) W-SW #57:42 h #26,593 mm 2,9 UV-I 348 W/m 17,4 C 21,0 C 7,9 km/h (2 Bft) 98,63 %